EDDE/ERF METAR and TAF weather

Enter ICAO airport designator
Station Type Date Time Source
EDDE METAR 2020/07/10 15:50 UTC NOAA

EDDE 101550Z 31018KT 9999 FEW030 SCT044CB 17/13 Q1013 TEMPO 31015G25KT


Station Type Date Time Source
EDDE Decoded METAR 2020/07/10 15:50 UTC NOAA

Erfurt-Bindersleben, Germany (EDDE) 50-59N 010-58E 322M
Jul 10, 2020 - 11:50 AM EDT / 2020.07.10 1550 UTC
Wind: from the NW (310 degrees) at 21 MPH (18 KT):0
Visibility: greater than 7 mile(s):0
Sky conditions: partly cloudy
Weather: Cumulonimbus clouds observed
Temperature: 62 F (17 C)
Dew Point: 55 F (13 C)
Relative Humidity: 77%
Pressure (altimeter): 29.91 in. Hg (1013 hPa)
ob: EDDE 101550Z 31018KT 9999 FEW030 SCT044CB 17/13 Q1013 TEMPO 31015G25KT
cycle: 16

Station Type Date Time Source
EDDE TAF 2020/07/10 12:27 UTC NOAA

TAF TAF EDDE 101100Z 1012/1112 26015G30KT CAVOK PROB30
TEMPO 1013/1016 27020G35KT SHRA BKN030CB
BECMG 1016/1019 31010KT
BECMG 1019/1021 31005KT

Example: see airport list